sensor_id;sensor_type;location;lat;lon;timestamp;P1;durP1;ratioP1;P2;durP2;ratioP2
43891;SDS011;29555;45.350;5.578;2023-02-13T00:00:43;24.33;;;14.10;;
43891;SDS011;29555;45.350;5.578;2023-02-13T00:03:09;24.67;;;14.13;;
43891;SDS011;29555;45.350;5.578;2023-02-13T00:05:34;25.95;;;14.75;;
43891;SDS011;29555;45.350;5.578;2023-02-13T00:08:00;30.17;;;14.35;;
43891;SDS011;29555;45.350;5.578;2023-02-13T00:10:25;32.92;;;15.07;;
43891;SDS011;29555;45.350;5.578;2023-02-13T00:12:51;30.17;;;15.48;;
43891;SDS011;29555;45.350;5.578;2023-02-13T00:15:16;26.40;;;14.88;;
43891;SDS011;29555;45.350;5.578;2023-02-13T00:17:41;25.27;;;13.95;;
43891;SDS011;29555;45.350;5.578;2023-02-13T00:20:08;29.15;;;14.48;;
43891;SDS011;29555;45.350;5.578;2023-02-13T00:22:35;26.23;;;14.65;;
43891;SDS011;29555;45.350;5.578;2023-02-13T00:25:01;26.10;;;13.52;;
43891;SDS011;29555;45.350;5.578;2023-02-13T00:27:30;28.27;;;15.57;;
43891;SDS011;29555;45.350;5.578;2023-02-13T00:29:56;25.33;;;15.05;;
43891;SDS011;29555;45.350;5.578;2023-02-13T00:32:22;23.58;;;13.50;;
43891;SDS011;29555;45.350;5.578;2023-02-13T00:34:47;25.30;;;15.02;;
43891;SDS011;29555;45.350;5.578;2023-02-13T00:37:12;23.42;;;14.77;;
43891;SDS011;29555;45.350;5.578;2023-02-13T00:39:38;34.03;;;16.13;;
43891;SDS011;29555;45.350;5.578;2023-02-13T00:42:04;25.08;;;14.07;;
43891;SDS011;29555;45.350;5.578;2023-02-13T00:44:29;23.30;;;12.38;;
43891;SDS011;29555;45.350;5.578;2023-02-13T00:46:55;28.25;;;14.95;;
43891;SDS011;29555;45.350;5.578;2023-02-13T00:49:20;21.30;;;13.07;;
43891;SDS011;29555;45.350;5.578;2023-02-13T00:51:46;32.90;;;15.35;;
43891;SDS011;29555;45.350;5.578;2023-02-13T00:54:11;34.33;;;14.35;;
43891;SDS011;29555;45.350;5.578;2023-02-13T00:56:37;27.67;;;15.50;;
43891;SDS011;29555;45.350;5.578;2023-02-13T00:59:02;29.35;;;14.50;;
43891;SDS011;29555;45.350;5.578;2023-02-13T01:01:28;22.98;;;12.10;;
43891;SDS011;29555;45.350;5.578;2023-02-13T01:03:53;23.52;;;13.88;;
43891;SDS011;29555;45.350;5.578;2023-02-13T01:06:19;23.02;;;12.48;;
43891;SDS011;29555;45.350;5.578;2023-02-13T01:08:44;24.27;;;12.63;;
43891;SDS011;29555;45.350;5.578;2023-02-13T01:11:09;30.25;;;15.30;;
43891;SDS011;29555;45.350;5.578;2023-02-13T01:13:35;28.48;;;12.90;;
43891;SDS011;29555;45.350;5.578;2023-02-13T01:16:00;27.20;;;14.77;;
43891;SDS011;29555;45.350;5.578;2023-02-13T01:18:26;24.65;;;13.48;;
43891;SDS011;29555;45.350;5.578;2023-02-13T01:20:55;27.02;;;12.63;;
43891;SDS011;29555;45.350;5.578;2023-02-13T01:23:32;24.30;;;12.68;;
43891;SDS011;29555;45.350;5.578;2023-02-13T01:26:02;24.90;;;10.88;;
43891;SDS011;29555;45.350;5.578;2023-02-13T01:28:28;33.75;;;14.75;;
43891;SDS011;29555;45.350;5.578;2023-02-13T01:30:54;23.05;;;12.73;;
43891;SDS011;29555;45.350;5.578;2023-02-13T01:33:21;23.40;;;14.30;;
43891;SDS011;29555;45.350;5.578;2023-02-13T01:35:47;23.90;;;14.52;;
43891;SDS011;29555;45.350;5.578;2023-02-13T01:38:13;25.33;;;15.77;;
43891;SDS011;29555;45.350;5.578;2023-02-13T01:40:48;20.60;;;13.32;;
43891;SDS011;29555;45.350;5.578;2023-02-13T01:43:15;27.60;;;14.95;;
43891;SDS011;29555;45.350;5.578;2023-02-13T01:45:42;31.88;;;14.77;;
43891;SDS011;29555;45.350;5.578;2023-02-13T01:48:13;29.80;;;15.98;;
43891;SDS011;29555;45.350;5.578;2023-02-13T01:50:43;22.98;;;14.45;;
43891;SDS011;29555;45.350;5.578;2023-02-13T01:53:11;24.13;;;13.50;;
43891;SDS011;29555;45.350;5.578;2023-02-13T01:55:43;29.30;;;13.57;;
43891;SDS011;29555;45.350;5.578;2023-02-13T01:58:15;23.13;;;12.93;;
43891;SDS011;29555;45.350;5.578;2023-02-13T02:00:43;32.38;;;13.05;;
43891;SDS011;29555;45.350;5.578;2023-02-13T02:03:14;24.60;;;12.73;;
43891;SDS011;29555;45.350;5.578;2023-02-13T02:05:44;25.85;;;12.75;;
43891;SDS011;29555;45.350;5.578;2023-02-13T02:08:10;33.63;;;13.20;;
43891;SDS011;29555;45.350;5.578;2023-02-13T02:10:37;24.02;;;13.43;;
43891;SDS011;29555;45.350;5.578;2023-02-13T02:15:43;19.75;;;14.35;;
43891;SDS011;29555;45.350;5.578;2023-02-13T02:18:18;97.38;;;35.85;;
43891;SDS011;29555;45.350;5.578;2023-02-13T02:23:47;127.50;;;45.88;;
43891;SDS011;29555;45.350;5.578;2023-02-13T02:40:19;44.53;;;24.77;;
43891;SDS011;29555;45.350;5.578;2023-02-13T02:51:32;31.02;;;14.30;;
43891;SDS011;29555;45.350;5.578;2023-02-13T02:57:14;30.17;;;15.82;;
43891;SDS011;29555;45.350;5.578;2023-02-13T02:59:44;29.05;;;14.30;;
43891;SDS011;29555;45.350;5.578;2023-02-13T03:02:29;27.63;;;15.65;;
43891;SDS011;29555;45.350;5.578;2023-02-13T03:05:19;30.65;;;15.32;;
43891;SDS011;29555;45.350;5.578;2023-02-13T03:08:07;24.63;;;13.35;;
43891;SDS011;29555;45.350;5.578;2023-02-13T03:10:34;33.45;;;17.77;;
43891;SDS011;29555;45.350;5.578;2023-02-13T03:13:35;28.13;;;14.77;;
43891;SDS011;29555;45.350;5.578;2023-02-13T03:16:03;29.23;;;14.20;;
43891;SDS011;29555;45.350;5.578;2023-02-13T03:18:54;21.90;;;13.07;;
43891;SDS011;29555;45.350;5.578;2023-02-13T03:30:09;19.83;;;13.68;;
43891;SDS011;29555;45.350;5.578;2023-02-13T03:35:26;30.20;;;15.48;;
43891;SDS011;29555;45.350;5.578;2023-02-13T03:38:23;29.75;;;17.15;;
43891;SDS011;29555;45.350;5.578;2023-02-13T03:41:03;25.40;;;12.73;;
43891;SDS011;29555;45.350;5.578;2023-02-13T03:46:33;20.85;;;12.30;;
43891;SDS011;29555;45.350;5.578;2023-02-13T03:49:02;26.17;;;15.88;;
43891;SDS011;29555;45.350;5.578;2023-02-13T03:57:32;42.05;;;22.23;;
43891;SDS011;29555;45.350;5.578;2023-02-13T04:00:19;35.17;;;16.02;;
43891;SDS011;29555;45.350;5.578;2023-02-13T04:02:53;28.38;;;13.07;;
43891;SDS011;29555;45.350;5.578;2023-02-13T04:05:25;28.65;;;12.88;;
43891;SDS011;29555;45.350;5.578;2023-02-13T04:07:54;20.42;;;11.40;;
43891;SDS011;29555;45.350;5.578;2023-02-13T04:10:20;20.17;;;12.05;;
43891;SDS011;29555;45.350;5.578;2023-02-13T04:15:46;22.27;;;11.18;;
43891;SDS011;29555;45.350;5.578;2023-02-13T04:18:28;22.63;;;11.70;;
43891;SDS011;29555;45.350;5.578;2023-02-13T04:20:55;24.45;;;13.13;;
43891;SDS011;29555;45.350;5.578;2023-02-13T04:23:20;22.48;;;14.07;;
43891;SDS011;29555;45.350;5.578;2023-02-13T04:25:47;19.85;;;12.90;;
43891;SDS011;29555;45.350;5.578;2023-02-13T04:28:16;22.20;;;12.88;;
43891;SDS011;29555;45.350;5.578;2023-02-13T04:30:41;19.15;;;12.80;;
43891;SDS011;29555;45.350;5.578;2023-02-13T04:33:06;19.92;;;10.00;;
43891;SDS011;29555;45.350;5.578;2023-02-13T04:35:32;18.05;;;11.48;;
43891;SDS011;29555;45.350;5.578;2023-02-13T04:37:59;30.38;;;11.68;;
43891;SDS011;29555;45.350;5.578;2023-02-13T04:40:24;21.73;;;11.48;;
43891;SDS011;29555;45.350;5.578;2023-02-13T04:42:50;20.48;;;12.02;;
43891;SDS011;29555;45.350;5.578;2023-02-13T04:45:15;25.00;;;12.43;;
43891;SDS011;29555;45.350;5.578;2023-02-13T04:47:41;18.77;;;11.15;;
43891;SDS011;29555;45.350;5.578;2023-02-13T04:50:07;21.30;;;10.55;;
43891;SDS011;29555;45.350;5.578;2023-02-13T04:52:32;15.50;;;9.05;;
43891;SDS011;29555;45.350;5.578;2023-02-13T04:54:58;20.67;;;11.63;;
43891;SDS011;29555;45.350;5.578;2023-02-13T04:57:23;20.05;;;8.27;;
43891;SDS011;29555;45.350;5.578;2023-02-13T04:59:49;17.67;;;9.40;;
43891;SDS011;29555;45.350;5.578;2023-02-13T05:02:14;17.38;;;8.90;;
43891;SDS011;29555;45.350;5.578;2023-02-13T05:04:39;28.67;;;11.85;;
43891;SDS011;29555;45.350;5.578;2023-02-13T05:07:05;17.23;;;9.32;;
43891;SDS011;29555;45.350;5.578;2023-02-13T05:09:30;13.48;;;8.88;;
43891;SDS011;29555;45.350;5.578;2023-02-13T05:11:55;15.63;;;8.95;;
43891;SDS011;29555;45.350;5.578;2023-02-13T05:14:21;16.30;;;9.63;;
43891;SDS011;29555;45.350;5.578;2023-02-13T05:16:46;19.15;;;10.95;;
43891;SDS011;29555;45.350;5.578;2023-02-13T05:19:13;23.85;;;10.27;;
43891;SDS011;29555;45.350;5.578;2023-02-13T05:21:39;12.85;;;9.35;;
43891;SDS011;29555;45.350;5.578;2023-02-13T05:24:23;21.48;;;10.48;;
43891;SDS011;29555;45.350;5.578;2023-02-13T05:26:49;19.38;;;8.88;;
43891;SDS011;29555;45.350;5.578;2023-02-13T05:29:14;24.63;;;10.52;;
43891;SDS011;29555;45.350;5.578;2023-02-13T05:31:43;16.10;;;9.77;;
43891;SDS011;29555;45.350;5.578;2023-02-13T05:34:09;13.98;;;7.95;;
43891;SDS011;29555;45.350;5.578;2023-02-13T05:36:34;16.77;;;8.50;;
43891;SDS011;29555;45.350;5.578;2023-02-13T05:39:00;16.30;;;10.45;;
43891;SDS011;29555;45.350;5.578;2023-02-13T05:41:25;20.08;;;9.63;;
43891;SDS011;29555;45.350;5.578;2023-02-13T05:43:51;18.05;;;9.63;;
43891;SDS011;29555;45.350;5.578;2023-02-13T05:46:16;16.60;;;10.38;;
43891;SDS011;29555;45.350;5.578;2023-02-13T05:48:41;21.15;;;11.07;;
43891;SDS011;29555;45.350;5.578;2023-02-13T05:51:07;23.48;;;11.68;;
43891;SDS011;29555;45.350;5.578;2023-02-13T05:53:33;20.08;;;11.18;;
43891;SDS011;29555;45.350;5.578;2023-02-13T05:55:59;21.33;;;10.57;;
43891;SDS011;29555;45.350;5.578;2023-02-13T05:58:26;25.85;;;11.93;;
43891;SDS011;29555;45.350;5.578;2023-02-13T06:00:54;22.00;;;10.90;;
43891;SDS011;29555;45.350;5.578;2023-02-13T06:03:21;19.58;;;10.05;;
43891;SDS011;29555;45.350;5.578;2023-02-13T06:05:46;20.23;;;10.73;;
43891;SDS011;29555;45.350;5.578;2023-02-13T06:08:12;19.52;;;10.15;;
43891;SDS011;29555;45.350;5.578;2023-02-13T06:10:37;14.43;;;10.05;;
43891;SDS011;29555;45.350;5.578;2023-02-13T06:13:03;16.20;;;9.75;;
43891;SDS011;29555;45.350;5.578;2023-02-13T06:15:28;19.50;;;10.40;;
43891;SDS011;29555;45.350;5.578;2023-02-13T06:17:54;17.67;;;8.75;;
43891;SDS011;29555;45.350;5.578;2023-02-13T06:20:19;16.95;;;8.77;;
43891;SDS011;29555;45.350;5.578;2023-02-13T06:22:49;17.42;;;9.52;;
43891;SDS011;29555;45.350;5.578;2023-02-13T06:25:15;21.33;;;9.85;;
43891;SDS011;29555;45.350;5.578;2023-02-13T06:27:41;16.65;;;9.43;;
43891;SDS011;29555;45.350;5.578;2023-02-13T06:30:06;18.98;;;9.88;;
43891;SDS011;29555;45.350;5.578;2023-02-13T06:32:32;16.13;;;8.73;;
43891;SDS011;29555;45.350;5.578;2023-02-13T06:34:57;22.42;;;10.27;;
43891;SDS011;29555;45.350;5.578;2023-02-13T06:37:23;17.05;;;9.48;;
43891;SDS011;29555;45.350;5.578;2023-02-13T06:39:48;19.98;;;9.65;;
43891;SDS011;29555;45.350;5.578;2023-02-13T06:42:13;16.92;;;9.50;;
43891;SDS011;29555;45.350;5.578;2023-02-13T06:44:39;20.63;;;11.43;;
43891;SDS011;29555;45.350;5.578;2023-02-13T06:47:04;18.85;;;12.23;;
43891;SDS011;29555;45.350;5.578;2023-02-13T06:49:30;17.33;;;11.30;;
43891;SDS011;29555;45.350;5.578;2023-02-13T06:51:55;20.83;;;10.05;;
43891;SDS011;29555;45.350;5.578;2023-02-13T06:54:21;22.92;;;10.82;;
43891;SDS011;29555;45.350;5.578;2023-02-13T06:56:46;17.25;;;10.73;;
43891;SDS011;29555;45.350;5.578;2023-02-13T06:59:11;17.63;;;10.43;;
43891;SDS011;29555;45.350;5.578;2023-02-13T07:01:37;16.35;;;10.57;;
43891;SDS011;29555;45.350;5.578;2023-02-13T07:04:02;17.90;;;9.82;;
43891;SDS011;29555;45.350;5.578;2023-02-13T07:06:28;20.92;;;10.93;;
43891;SDS011;29555;45.350;5.578;2023-02-13T07:08:53;19.48;;;9.48;;
43891;SDS011;29555;45.350;5.578;2023-02-13T07:11:22;20.20;;;10.88;;
43891;SDS011;29555;45.350;5.578;2023-02-13T07:13:49;23.60;;;11.02;;
43891;SDS011;29555;45.350;5.578;2023-02-13T07:16:14;16.33;;;9.32;;
43891;SDS011;29555;45.350;5.578;2023-02-13T07:18:40;24.55;;;10.25;;
43891;SDS011;29555;45.350;5.578;2023-02-13T07:21:06;16.88;;;9.43;;
43891;SDS011;29555;45.350;5.578;2023-02-13T07:23:32;14.13;;;9.07;;
43891;SDS011;29555;45.350;5.578;2023-02-13T07:25:58;11.45;;;8.48;;
43891;SDS011;29555;45.350;5.578;2023-02-13T07:28:25;14.73;;;8.80;;
43891;SDS011;29555;45.350;5.578;2023-02-13T07:30:50;16.75;;;9.75;;
43891;SDS011;29555;45.350;5.578;2023-02-13T07:33:16;16.73;;;9.18;;
43891;SDS011;29555;45.350;5.578;2023-02-13T07:35:46;20.60;;;9.45;;
43891;SDS011;29555;45.350;5.578;2023-02-13T07:38:12;17.73;;;9.05;;
43891;SDS011;29555;45.350;5.578;2023-02-13T07:40:37;16.90;;;8.70;;
43891;SDS011;29555;45.350;5.578;2023-02-13T07:43:02;15.82;;;10.82;;
43891;SDS011;29555;45.350;5.578;2023-02-13T07:45:28;18.35;;;9.57;;
43891;SDS011;29555;45.350;5.578;2023-02-13T07:47:54;19.42;;;9.85;;
43891;SDS011;29555;45.350;5.578;2023-02-13T07:50:20;18.02;;;9.48;;
43891;SDS011;29555;45.350;5.578;2023-02-13T07:52:55;17.23;;;9.18;;
43891;SDS011;29555;45.350;5.578;2023-02-13T07:55:22;18.52;;;9.70;;
43891;SDS011;29555;45.350;5.578;2023-02-13T07:57:48;21.20;;;9.73;;
43891;SDS011;29555;45.350;5.578;2023-02-13T08:00:14;25.00;;;13.20;;
43891;SDS011;29555;45.350;5.578;2023-02-13T08:02:41;136.70;;;49.67;;
43891;SDS011;29555;45.350;5.578;2023-02-13T08:05:06;49.55;;;23.85;;
43891;SDS011;29555;45.350;5.578;2023-02-13T08:07:32;167.50;;;63.38;;
43891;SDS011;29555;45.350;5.578;2023-02-13T08:09:58;52.03;;;24.17;;
43891;SDS011;29555;45.350;5.578;2023-02-13T08:12:42;41.45;;;20.85;;
43891;SDS011;29555;45.350;5.578;2023-02-13T08:15:10;29.75;;;16.52;;
43891;SDS011;29555;45.350;5.578;2023-02-13T08:17:36;36.22;;;19.52;;
43891;SDS011;29555;45.350;5.578;2023-02-13T08:20:02;45.05;;;19.10;;
43891;SDS011;29555;45.350;5.578;2023-02-13T08:22:28;18.52;;;13.40;;
43891;SDS011;29555;45.350;5.578;2023-02-13T08:24:53;76.82;;;34.28;;
43891;SDS011;29555;45.350;5.578;2023-02-13T08:27:19;41.55;;;24.10;;
43891;SDS011;29555;45.350;5.578;2023-02-13T08:29:44;37.45;;;17.10;;
43891;SDS011;29555;45.350;5.578;2023-02-13T08:32:09;43.25;;;21.95;;
43891;SDS011;29555;45.350;5.578;2023-02-13T08:34:35;68.47;;;33.13;;
43891;SDS011;29555;45.350;5.578;2023-02-13T08:37:01;26.73;;;16.63;;
43891;SDS011;29555;45.350;5.578;2023-02-13T08:39:27;21.30;;;14.13;;
43891;SDS011;29555;45.350;5.578;2023-02-13T08:41:52;21.92;;;12.73;;
43891;SDS011;29555;45.350;5.578;2023-02-13T08:44:17;35.95;;;19.55;;
43891;SDS011;29555;45.350;5.578;2023-02-13T08:46:43;41.92;;;24.15;;
43891;SDS011;29555;45.350;5.578;2023-02-13T08:49:08;43.60;;;21.58;;
43891;SDS011;29555;45.350;5.578;2023-02-13T08:51:34;32.13;;;16.83;;
43891;SDS011;29555;45.350;5.578;2023-02-13T08:53:59;29.35;;;12.85;;
43891;SDS011;29555;45.350;5.578;2023-02-13T08:56:25;22.67;;;13.32;;
43891;SDS011;29555;45.350;5.578;2023-02-13T08:58:50;24.63;;;14.05;;
43891;SDS011;29555;45.350;5.578;2023-02-13T09:01:16;26.77;;;13.57;;
43891;SDS011;29555;45.350;5.578;2023-02-13T09:03:42;25.27;;;11.48;;
43891;SDS011;29555;45.350;5.578;2023-02-13T09:06:07;22.27;;;13.10;;
43891;SDS011;29555;45.350;5.578;2023-02-13T09:08:33;19.50;;;10.60;;
43891;SDS011;29555;45.350;5.578;2023-02-13T09:11:00;18.20;;;10.95;;
43891;SDS011;29555;45.350;5.578;2023-02-13T09:13:30;17.20;;;9.48;;
43891;SDS011;29555;45.350;5.578;2023-02-13T09:15:59;13.63;;;9.30;;
43891;SDS011;29555;45.350;5.578;2023-02-13T09:18:26;19.00;;;10.32;;
43891;SDS011;29555;45.350;5.578;2023-02-13T09:21:11;15.63;;;7.85;;
43891;SDS011;29555;45.350;5.578;2023-02-13T09:23:37;17.15;;;9.70;;
43891;SDS011;29555;45.350;5.578;2023-02-13T09:26:05;16.17;;;9.93;;
43891;SDS011;29555;45.350;5.578;2023-02-13T09:28:32;14.23;;;7.97;;
43891;SDS011;29555;45.350;5.578;2023-02-13T09:30:59;15.27;;;8.13;;
43891;SDS011;29555;45.350;5.578;2023-02-13T09:33:24;16.63;;;10.70;;
43891;SDS011;29555;45.350;5.578;2023-02-13T09:35:50;17.77;;;9.02;;
43891;SDS011;29555;45.350;5.578;2023-02-13T09:38:16;14.20;;;7.93;;
43891;SDS011;29555;45.350;5.578;2023-02-13T09:40:55;16.65;;;11.20;;
43891;SDS011;29555;45.350;5.578;2023-02-13T09:45:57;12.93;;;9.43;;
43891;SDS011;29555;45.350;5.578;2023-02-13T09:48:29;22.52;;;9.68;;
43891;SDS011;29555;45.350;5.578;2023-02-13T09:50:56;17.13;;;7.80;;
43891;SDS011;29555;45.350;5.578;2023-02-13T09:53:23;21.73;;;13.25;;
43891;SDS011;29555;45.350;5.578;2023-02-13T09:56:06;14.00;;;8.70;;
43891;SDS011;29555;45.350;5.578;2023-02-13T10:01:24;12.05;;;6.88;;
43891;SDS011;29555;45.350;5.578;2023-02-13T10:04:11;10.65;;;7.65;;
43891;SDS011;29555;45.350;5.578;2023-02-13T10:13:15;14.10;;;6.78;;
43891;SDS011;29555;45.350;5.578;2023-02-13T10:15:56;18.20;;;7.85;;
43891;SDS011;29555;45.350;5.578;2023-02-13T10:18:48;10.93;;;7.10;;
43891;SDS011;29555;45.350;5.578;2023-02-13T10:21:20;12.82;;;6.88;;
43891;SDS011;29555;45.350;5.578;2023-02-13T10:23:59;19.67;;;8.95;;
43891;SDS011;29555;45.350;5.578;2023-02-13T10:26:39;18.35;;;8.52;;
43891;SDS011;29555;45.350;5.578;2023-02-13T10:29:22;18.65;;;9.15;;
43891;SDS011;29555;45.350;5.578;2023-02-13T10:32:13;16.88;;;7.75;;
43891;SDS011;29555;45.350;5.578;2023-02-13T10:34:43;11.70;;;7.88;;
43891;SDS011;29555;45.350;5.578;2023-02-13T10:37:11;12.13;;;7.15;;
43891;SDS011;29555;45.350;5.578;2023-02-13T10:39:39;12.45;;;7.00;;
43891;SDS011;29555;45.350;5.578;2023-02-13T10:42:21;16.80;;;8.68;;
43891;SDS011;29555;45.350;5.578;2023-02-13T11:03:49;20.17;;;9.43;;
43891;SDS011;29555;45.350;5.578;2023-02-13T11:06:27;18.98;;;9.90;;
43891;SDS011;29555;45.350;5.578;2023-02-13T11:08:54;14.48;;;10.68;;
43891;SDS011;29555;45.350;5.578;2023-02-13T11:11:29;13.18;;;9.65;;
43891;SDS011;29555;45.350;5.578;2023-02-13T11:14:16;26.25;;;9.63;;
43891;SDS011;29555;45.350;5.578;2023-02-13T11:16:53;19.75;;;10.40;;
43891;SDS011;29555;45.350;5.578;2023-02-13T11:19:36;19.25;;;9.88;;
43891;SDS011;29555;45.350;5.578;2023-02-13T11:22:11;23.05;;;10.50;;
43891;SDS011;29555;45.350;5.578;2023-02-13T11:24:41;18.42;;;10.38;;
43891;SDS011;29555;45.350;5.578;2023-02-13T11:27:21;12.40;;;8.43;;
43891;SDS011;29555;45.350;5.578;2023-02-13T11:32:23;16.30;;;8.93;;
43891;SDS011;29555;45.350;5.578;2023-02-13T11:34:50;16.27;;;9.27;;
43891;SDS011;29555;45.350;5.578;2023-02-13T11:37:23;15.40;;;9.52;;
43891;SDS011;29555;45.350;5.578;2023-02-13T11:39:52;20.95;;;8.30;;
43891;SDS011;29555;45.350;5.578;2023-02-13T11:42:23;13.95;;;7.88;;
43891;SDS011;29555;45.350;5.578;2023-02-13T11:44:51;16.40;;;9.15;;
43891;SDS011;29555;45.350;5.578;2023-02-13T11:47:36;22.02;;;8.90;;
43891;SDS011;29555;45.350;5.578;2023-02-13T11:50:04;20.13;;;10.25;;
43891;SDS011;29555;45.350;5.578;2023-02-13T11:52:44;19.55;;;10.55;;
43891;SDS011;29555;45.350;5.578;2023-02-13T11:55:24;16.23;;;10.55;;
43891;SDS011;29555;45.350;5.578;2023-02-13T11:58:02;23.58;;;10.93;;
43891;SDS011;29555;45.350;5.578;2023-02-13T12:00:35;19.65;;;10.80;;
43891;SDS011;29555;45.350;5.578;2023-02-13T12:05:58;35.08;;;18.30;;
43891;SDS011;29555;45.350;5.578;2023-02-13T12:08:28;19.38;;;10.75;;
43891;SDS011;29555;45.350;5.578;2023-02-13T12:10:55;13.80;;;8.10;;
43891;SDS011;29555;45.350;5.578;2023-02-13T12:15:54;19.50;;;8.93;;
43891;SDS011;29555;45.350;5.578;2023-02-13T12:18:28;12.95;;;9.23;;
43891;SDS011;29555;45.350;5.578;2023-02-13T12:24:15;15.63;;;9.65;;
43891;SDS011;29555;45.350;5.578;2023-02-13T12:38:14;10.00;;;8.07;;
43891;SDS011;29555;45.350;5.578;2023-02-13T12:43:57;15.50;;;9.05;;
43891;SDS011;29555;45.350;5.578;2023-02-13T12:54:47;13.77;;;9.32;;
43891;SDS011;29555;45.350;5.578;2023-02-13T13:00:28;15.52;;;8.90;;
43891;SDS011;29555;45.350;5.578;2023-02-13T13:03:19;15.48;;;6.68;;
43891;SDS011;29555;45.350;5.578;2023-02-13T13:06:01;13.57;;;8.10;;
43891;SDS011;29555;45.350;5.578;2023-02-13T13:19:41;18.48;;;10.07;;
43891;SDS011;29555;45.350;5.578;2023-02-13T13:27:46;19.30;;;9.15;;
43891;SDS011;29555;45.350;5.578;2023-02-13T13:30:27;15.48;;;10.45;;
43891;SDS011;29555;45.350;5.578;2023-02-13T13:32:55;18.33;;;11.73;;
43891;SDS011;29555;45.350;5.578;2023-02-13T13:35:46;20.75;;;11.07;;
43891;SDS011;29555;45.350;5.578;2023-02-13T13:49:40;27.15;;;11.10;;
43891;SDS011;29555;45.350;5.578;2023-02-13T13:52:20;24.23;;;11.57;;
43891;SDS011;29555;45.350;5.578;2023-02-13T13:54:54;20.92;;;10.23;;
43891;SDS011;29555;45.350;5.578;2023-02-13T13:57:58;22.85;;;9.13;;
43891;SDS011;29555;45.350;5.578;2023-02-13T14:00:29;22.75;;;11.68;;
43891;SDS011;29555;45.350;5.578;2023-02-13T14:05:30;30.20;;;14.30;;
43891;SDS011;29555;45.350;5.578;2023-02-13T14:07:58;23.40;;;11.25;;
43891;SDS011;29555;45.350;5.578;2023-02-13T14:23:30;22.70;;;10.77;;
43891;SDS011;29555;45.350;5.578;2023-02-13T14:31:35;29.95;;;14.60;;
43891;SDS011;29555;45.350;5.578;2023-02-13T14:34:08;25.42;;;13.02;;
43891;SDS011;29555;45.350;5.578;2023-02-13T14:36:44;28.17;;;12.70;;
43891;SDS011;29555;45.350;5.578;2023-02-13T14:44:19;21.45;;;12.82;;
43891;SDS011;29555;45.350;5.578;2023-02-13T14:46:49;25.42;;;12.60;;
43891;SDS011;29555;45.350;5.578;2023-02-13T14:51:48;25.17;;;12.30;;
43891;SDS011;29555;45.350;5.578;2023-02-13T15:02:44;31.50;;;14.10;;
43891;SDS011;29555;45.350;5.578;2023-02-13T15:05:14;21.60;;;13.20;;
43891;SDS011;29555;45.350;5.578;2023-02-13T15:07:45;28.75;;;13.43;;
43891;SDS011;29555;45.350;5.578;2023-02-13T15:13:03;22.70;;;13.38;;
43891;SDS011;29555;45.350;5.578;2023-02-13T15:15:32;27.15;;;14.50;;
43891;SDS011;29555;45.350;5.578;2023-02-13T15:18:00;27.17;;;15.10;;
43891;SDS011;29555;45.350;5.578;2023-02-13T15:20:32;23.30;;;13.90;;
43891;SDS011;29555;45.350;5.578;2023-02-13T15:22:59;21.77;;;12.25;;
43891;SDS011;29555;45.350;5.578;2023-02-13T15:27:58;25.00;;;15.82;;
43891;SDS011;29555;45.350;5.578;2023-02-13T15:30:25;19.65;;;12.55;;
43891;SDS011;29555;45.350;5.578;2023-02-13T15:32:59;26.90;;;15.05;;
43891;SDS011;29555;45.350;5.578;2023-02-13T15:35:45;21.52;;;14.07;;
43891;SDS011;29555;45.350;5.578;2023-02-13T15:40:55;24.50;;;14.65;;
43891;SDS011;29555;45.350;5.578;2023-02-13T15:45:56;29.70;;;14.32;;
43891;SDS011;29555;45.350;5.578;2023-02-13T15:48:25;25.77;;;14.55;;
43891;SDS011;29555;45.350;5.578;2023-02-13T15:50:52;21.95;;;13.60;;
43891;SDS011;29555;45.350;5.578;2023-02-13T15:53:18;27.98;;;13.88;;
43891;SDS011;29555;45.350;5.578;2023-02-13T15:55:54;29.88;;;13.63;;
43891;SDS011;29555;45.350;5.578;2023-02-13T15:58:28;21.83;;;11.93;;
43891;SDS011;29555;45.350;5.578;2023-02-13T16:00:55;19.67;;;13.73;;
43891;SDS011;29555;45.350;5.578;2023-02-13T16:11:37;16.38;;;10.18;;
43891;SDS011;29555;45.350;5.578;2023-02-13T16:16:42;17.95;;;10.85;;
43891;SDS011;29555;45.350;5.578;2023-02-13T16:19:25;21.80;;;10.90;;
43891;SDS011;29555;45.350;5.578;2023-02-13T16:21:57;23.52;;;9.65;;
43891;SDS011;29555;45.350;5.578;2023-02-13T16:24:51;15.23;;;11.05;;
43891;SDS011;29555;45.350;5.578;2023-02-13T16:27:24;16.02;;;9.73;;
43891;SDS011;29555;45.350;5.578;2023-02-13T16:29:57;18.63;;;8.85;;
43891;SDS011;29555;45.350;5.578;2023-02-13T16:32:26;18.60;;;8.38;;
43891;SDS011;29555;45.350;5.578;2023-02-13T16:34:54;16.92;;;9.68;;
43891;SDS011;29555;45.350;5.578;2023-02-13T16:37:27;16.33;;;9.27;;
43891;SDS011;29555;45.350;5.578;2023-02-13T16:42:32;19.05;;;10.07;;
43891;SDS011;29555;45.350;5.578;2023-02-13T16:47:57;17.05;;;9.05;;
43891;SDS011;29555;45.350;5.578;2023-02-13T16:50:26;20.90;;;11.13;;
43891;SDS011;29555;45.350;5.578;2023-02-13T16:52:56;13.65;;;9.80;;
43891;SDS011;29555;45.350;5.578;2023-02-13T16:55:25;17.95;;;9.88;;
43891;SDS011;29555;45.350;5.578;2023-02-13T16:57:59;19.83;;;11.38;;
43891;SDS011;29555;45.350;5.578;2023-02-13T17:00:56;20.15;;;10.55;;
43891;SDS011;29555;45.350;5.578;2023-02-13T17:03:30;20.20;;;10.43;;
43891;SDS011;29555;45.350;5.578;2023-02-13T17:06:00;12.77;;;9.45;;
43891;SDS011;29555;45.350;5.578;2023-02-13T17:08:31;20.48;;;9.35;;
43891;SDS011;29555;45.350;5.578;2023-02-13T17:11:02;18.83;;;11.35;;
43891;SDS011;29555;45.350;5.578;2023-02-13T17:13:32;16.42;;;8.93;;
43891;SDS011;29555;45.350;5.578;2023-02-13T17:15:58;23.00;;;11.23;;
43891;SDS011;29555;45.350;5.578;2023-02-13T17:18:24;18.77;;;10.07;;
43891;SDS011;29555;45.350;5.578;2023-02-13T17:20:50;21.80;;;11.40;;
43891;SDS011;29555;45.350;5.578;2023-02-13T17:23:17;20.20;;;12.23;;
43891;SDS011;29555;45.350;5.578;2023-02-13T17:25:46;21.92;;;11.45;;
43891;SDS011;29555;45.350;5.578;2023-02-13T17:28:24;19.63;;;11.65;;
43891;SDS011;29555;45.350;5.578;2023-02-13T17:30:54;28.25;;;11.05;;
43891;SDS011;29555;45.350;5.578;2023-02-13T17:33:22;21.10;;;11.93;;
43891;SDS011;29555;45.350;5.578;2023-02-13T17:35:50;25.08;;;14.15;;
43891;SDS011;29555;45.350;5.578;2023-02-13T17:38:16;22.20;;;13.63;;
43891;SDS011;29555;45.350;5.578;2023-02-13T17:40:41;27.20;;;17.30;;
43891;SDS011;29555;45.350;5.578;2023-02-13T17:43:09;32.15;;;17.73;;
43891;SDS011;29555;45.350;5.578;2023-02-13T17:45:35;32.45;;;16.63;;
43891;SDS011;29555;45.350;5.578;2023-02-13T17:48:01;36.03;;;16.40;;
43891;SDS011;29555;45.350;5.578;2023-02-13T17:50:28;28.23;;;16.55;;
43891;SDS011;29555;45.350;5.578;2023-02-13T17:52:55;27.83;;;15.18;;
43891;SDS011;29555;45.350;5.578;2023-02-13T17:55:25;23.48;;;16.23;;
43891;SDS011;29555;45.350;5.578;2023-02-13T17:57:53;33.80;;;20.08;;
43891;SDS011;29555;45.350;5.578;2023-02-13T18:00:23;47.72;;;26.02;;
43891;SDS011;29555;45.350;5.578;2023-02-13T18:02:52;42.53;;;24.05;;
43891;SDS011;29555;45.350;5.578;2023-02-13T18:05:18;48.17;;;27.45;;
43891;SDS011;29555;45.350;5.578;2023-02-13T18:07:44;43.03;;;25.85;;
43891;SDS011;29555;45.350;5.578;2023-02-13T18:10:14;52.50;;;27.73;;
43891;SDS011;29555;45.350;5.578;2023-02-13T18:12:42;45.15;;;28.23;;
43891;SDS011;29555;45.350;5.578;2023-02-13T18:15:08;46.50;;;26.08;;